Latest Coastal Weather Observations for Gabo Island

IDV60701

Issued at 7:21 pm EDT Saturday 21 January 2017 (issued every 10 minutes, with the page automatically refreshed every 10 minutes)

About coastal observations | Map of coastal stations | Coastal observations for VIC | Marine services | Other Formats
Station Details ID: 084016 Name: GABO ISLAND LIGHTHOUSE Lat: -37.57 Lon: 149.92 Height: 15.2 m
Data from the previous 72 hours. | See also: Recent months at Gabo Island
Date/Time
EDT
Temp
°C
Wind Pressure Rain since
9am
mm
Weather Cloud Vis
km
Sea
Height
m
Swell
Dir  Spd
kts
Gust
kts
hPa Trend Height
m
Period
s
Dir
21/07:00pm 18.2 SW 23 27 1015.3 - 0.0 - - - - - - -
21/06:30pm 18.4 SW 25 30 1015.0 - 0.0 - - - - - - -
21/06:00pm 18.3 SW 26 29 1014.6 - 0.0 - - - - - - -
21/05:30pm 18.6 SW 28 32 1014.5 - 0.0 - - - - - - -
21/05:00pm 18.4 SW 28 33 1014.3 - 0.0 - - - - - - -
21/04:30pm 18.5 SW 31 35 1014.1 - 0.0 - - - - - - -
21/04:00pm 18.6 SW 31 36 1014.1 - 0.0 - - - - - - -
21/03:30pm 18.8 SW 30 35 1014.0 - 0.0 - - - - - - -
21/03:00pm 18.7 SW 31 37 1013.5 - 0.0 Fine Partly cloudy 30 3 3.0 8 S
21/02:30pm 19.2 SW 32 37 1013.4 - 0.0 - - - - - - -
21/02:00pm 18.6 SW 32 38 1013.1 - 0.0 - - - - - - -
21/01:30pm 18.7 SW 33 39 1013.0 - 0.0 - - - - - - -
21/01:00pm 18.9 SW 31 37 1013.0 - 0.0 - - - - - - -
21/12:30pm 18.8 SW 26 31 1013.0 - 0.0 - - - - - - -
21/12:00pm 19.5 WSW 25 33 1012.8 - 0.0 - - - - - - -
21/11:30am 18.4 SW 27 32 1012.7 - 0.0 - - - - - - -
21/11:00am 18.6 WSW 25 32 1012.4 - 0.0 - - - - - - -
21/10:30am 17.9 WSW 25 32 1012.2 - 0.0 - - - - - - -
21/10:00am 17.2 WSW 24 28 1012.1 - 0.0 - - - - - - -
21/09:30am 17.1 WSW 25 31 1011.8 - 0.0 - - - - - - -
21/09:00am 16.7 WSW 23 30 1011.5 - 6.0 Fine Mostly cloudy 20 3 3.0 10 SE
21/08:30am 16.0 WSW 24 31 1011.3 - 6.0 - - - - - - -
21/08:00am 15.8 WSW 23 29 1010.8 - 6.0 - - - - - - -
21/07:30am 15.9 W 22 29 1010.2 - 6.0 - - - - - - -
21/07:00am 15.6 W 25 31 1009.3 - 6.0 - - - - - - -
21/06:30am 15.7 W 22 26 1008.8 - 6.0 - - - - - - -
21/06:00am 15.9 W 22 28 1007.8 - 6.0 - - - - - - -
21/05:30am 15.8 WSW 24 31 1007.4 - 6.0 - - - - - - -
21/05:00am 16.5 W 22 27 1006.7 - 6.0 - - - - - - -
21/04:30am 17.3 WSW 27 38 1006.0 - 6.0 - - - - - - -
21/04:29am 17.2 WSW 28 38 1005.9 - 6.0 - - - - - - -
21/04:00am 17.1 WSW 26 33 1005.6 - 6.0 - - - - - - -
21/03:30am 17.2 WSW 31 39 1005.0 - 6.0 - - - - - - -
21/03:09am 17.0 WSW 30 42 1004.5 - 6.0 - - - - - - -
21/03:00am 17.2 WSW 30 38 1004.4 - 6.0 Fine Mostly clear 20 5 4.0 9 SW
21/02:30am 17.1 WSW 31 38 1004.3 - 6.0 - - - - - - -
21/02:12am 17.2 WSW 31 41 1004.3 - 6.0 - - - - - - -
21/02:00am 17.2 WSW 33 41 1004.3 - 6.0 - - - - - - -
21/01:52am 17.1 WSW 31 41 1004.3 - 6.0 - - - - - - -
21/01:30am 17.3 WSW 28 34 1004.2 - 6.0 - - - - - - -
21/01:28am 17.3 WSW 28 38 1004.1 - 6.0 - - - - - - -
21/01:00am 17.4 WSW 28 36 1003.8 - 6.0 - - - - - - -
21/12:41am 17.3 WSW 29 39 1003.6 - 6.0 - - - - - - -
21/12:30am 17.4 WSW 32 39 1003.5 - 6.0 - - - - - - -
21/12:05am 17.5 WSW 32 42 1003.6 - 6.0 - - - - - - -
21/12:00am 17.6 WSW 33 42 1003.5 - 6.0 - - - - - - -
 
Date/Time
EDT
Temp
°C
Wind Pressure Rain since
9am
mm
Weather Cloud Vis
km
Sea
Height
m
Swell
Dir  Spd
kts
Gust
kts
hPa Trend Height
m
Period
s
Dir
20/11:37pm 17.4 WSW 33 43 1003.4 - 6.0 - - - - - - -
20/11:30pm 17.4 WSW 32 39 1003.3 - 6.0 - - - - - - -
20/11:00pm 17.6 WSW 32 40 1003.0 - 6.0 - - - - - - -
20/10:30pm 17.7 WSW 33 41 1002.3 - 6.0 - - - - - - -
20/10:00pm 17.5 WSW 33 43 1001.9 - 6.0 - - - - - - -
20/09:30pm 17.4 SW 38 49 1001.2 - 6.0 - - - - - - -
20/09:18pm 16.7 SSW 37 47 1001.1 - 6.0 - - - - - - -
20/09:00pm 16.7 SSW 38 46 1000.5 - 5.8 Recent precip. Cloudy 7 5 4.0 9 SW
20/08:30pm 18.0 SW 42 52 999.4 - 5.4 - - - - - - -
20/08:00pm 17.9 WSW 41 54 998.5 - 5.4 - - - - - - -
20/07:30pm 16.2 SW 42 56 997.5 - 5.4 - - - - - - -
20/07:00pm 19.0 WSW 39 49 996.4 - 3.6 - - - - - - -
20/06:41pm 19.1 WSW 46 57 995.9 - 3.6 - - - - - - -
20/06:39pm 18.8 WSW 51 57 995.6 - 3.6 - - - - - - -
20/06:30pm 19.0 WSW 40 53 995.4 - 3.6 - - - - - - -
20/06:00pm 19.7 WSW 37 53 994.5 - 3.6 - - - - - - -
20/05:30pm 21.0 WSW 39 50 993.8 - 3.6 - - - - - - -
20/05:00pm 20.9 WSW 35 47 993.7 - 3.6 - - - - - - -
20/04:30pm 20.8 WSW 36 46 993.4 - 3.6 - - - - - - -
20/04:00pm 20.8 WSW 35 45 993.0 - 3.6 - - - - - - -
20/03:30pm 21.5 SW 32 43 992.6 - 3.6 - - - - - - -
20/03:03pm 21.5 SW 26 37 992.4 - 3.4 - - - - - - -
20/03:00pm 21.3 WSW 25 34 992.4 - 3.4 Distant precip. Mostly cloudy 10 3 - - -
20/02:49pm 21.4 WSW 20 31 992.3 - 3.4 - - - - - - -
20/02:30pm 21.0 WSW 22 28 992.4 - 3.4 - - - - - - -
20/02:14pm 20.8 SW 15 25 992.3 - 3.4 - - - - - - -
20/02:00pm 21.4 NW 5 7 992.2 - 3.4 - - - - - - -
20/01:30pm 20.9 NNW 4 6 991.9 - 3.4 - - - - - - -
20/01:00pm 19.7 SSW 7 9 992.3 - 3.4 - - - - - - -
20/12:30pm 21.2 NNW 5 9 991.8 - 2.6 - - - - - - -
20/12:00pm 21.5 N 17 22 990.6 - 2.2 - - - - - - -
20/11:30am 20.9 N 18 25 990.9 - 2.2 - - - - - - -
20/11:00am 19.7 NNE 21 26 990.7 - 2.2 - - - - - - -
20/10:30am 19.1 NNE 18 23 991.8 - 2.2 - - - - - - -
20/10:00am 18.5 NNE 18 21 993.3 - 1.6 - - - - - - -
20/09:30am 18.3 NNE 17 22 994.8 - 1.0 - - - - - - -
20/09:00am 18.2 NNE 18 22 996.1 - 3.8 Rain Cloudy 3 2 - - -
20/08:30am 18.2 N 16 22 997.1 - 3.4 - - - - - - -
20/08:00am 18.5 N 19 25 997.6 - 2.6 - - - - - - -
20/07:31am 19.4 NNE 17 27 997.9 - 1.0 - - - - - - -
20/07:30am 19.4 NNE 16 24 998.0 - 1.0 - - - - - - -
20/07:00am 19.7 N 12 19 998.8 - 0.4 - - - - - - -
20/06:31am 20.7 N 20 37 997.6 - 0.0 - - - - - - -
20/06:30am 20.7 N 23 37 997.4 - 0.0 - - - - - - -
20/06:00am 20.6 NNE 34 47 995.3 - 0.0 - - - - - - -
20/05:30am 20.8 NNE 33 45 995.8 - 0.0 - - - - - - -
20/05:00am 20.7 NNE 37 49 996.4 - 0.0 - - - - - - -
20/04:30am 20.8 NNE 33 43 997.5 - 0.0 - - - - - - -
20/04:00am 20.9 NNE 33 43 998.8 - 0.0 - - - - - - -
20/03:30am 20.8 NNE 32 43 999.3 - 0.0 - - - - - - -
20/03:03am 20.8 NNE 29 39 1000.5 - 0.0 - - - - - - -
20/03:00am 20.8 NNE 30 39 1000.3 - 0.0 Fine Mostly cloudy 20 2 - - -
20/02:35am 20.5 NNE 32 42 1000.2 - 0.0 - - - - - - -
20/02:30am 20.2 NNE 33 42 1000.2 - 0.0 - - - - - - -
20/02:00am 19.7 NNE 38 46 1000.3 - 0.0 - - - - - - -
20/01:30am 20.4 NNE 33 43 1001.7 - 0.0 - - - - - - -
20/01:15am 20.6 NNE 30 40 1002.5 - 0.0 - - - - - - -
20/01:00am 20.6 NNE 28 35 1003.5 - 0.0 - - - - - - -
20/12:30am 20.7 NNE 29 36 1004.4 - 0.0 - - - - - - -
20/12:18am 20.4 NNE 28 39 1004.7 - 0.0 - - - - - - -
20/12:00am 20.1 NNE 27 35 1005.4 - 0.0 - - - - - - -
 
Date/Time
EDT
Temp
°C
Wind Pressure Rain since
9am
mm
Weather Cloud Vis
km
Sea
Height
m
Swell
Dir  Spd
kts
Gust
kts
hPa Trend Height
m
Period
s
Dir
19/11:36pm 19.9 NNE 26 36 1006.0 - 0.0 - - - - - - -
19/11:30pm 20.1 NNE 27 35 1006.3 - 0.0 - - - - - - -
19/11:04pm 20.5 NNE 27 37 1007.2 - 0.0 - - - - - - -
19/11:00pm 20.8 NNE 27 35 1007.0 - 0.0 - - - - - - -
19/10:30pm 21.1 NE 31 37 1007.0 - 0.0 - - - - - - -
19/10:00pm 21.2 NE 28 36 1007.9 - 0.0 - - - - - - -
19/09:30pm 21.2 NNE 27 34 1008.2 - 0.0 - - - - - - -
19/09:00pm 21.0 NNE 28 35 1008.2 - 0.0 Fine Cloudy 30 2 1.8 9 S
19/08:30pm 21.0 NE 27 33 1008.7 - 0.0 - - - - - - -
19/08:00pm 21.0 NE 28 34 1008.9 - 0.0 - - - - - - -
19/07:30pm 21.0 NE 27 34 1009.1 - 0.0 - - - - - - -
19/07:00pm 20.9 NE 27 36 1009.0 - 0.0 - - - - - - -
19/06:30pm 21.1 NE 26 32 1009.2 - 0.0 - - - - - - -
19/06:00pm 21.1 NE 29 33 1009.4 - 0.0 - - - - - - -
19/05:30pm 21.0 NE 26 33 1009.9 - 0.0 - - - - - - -
19/05:00pm 21.0 NE 26 31 1010.6 - 0.0 - - - - - - -
19/04:30pm 20.5 NE 24 29 1011.5 - 0.0 - - - - - - -
19/04:00pm 20.5 NE 24 29 1011.8 - 0.0 - - - - - - -
19/03:30pm 19.6 NE 20 26 1012.5 - 0.0 - - - - - - -
19/03:00pm 19.6 NE 22 28 1012.8 - 0.0 Distant precip. Mostly cloudy 7 1 1.5 9 S
19/02:30pm 21.3 ENE 17 20 1013.0 - 0.0 - - - - - - -
19/02:00pm 21.2 ENE 15 19 1013.5 - 0.0 - - - - - - -
19/01:30pm 21.2 ENE 15 17 1013.8 - 0.0 - - - - - - -
19/01:00pm 20.4 E 14 16 1014.1 - 0.0 - - - - - - -
19/12:30pm 20.5 ENE 12 14 1014.6 - 0.0 - - - - - - -
19/12:00pm 20.5 ENE 10 12 1014.8 - 0.0 - - - - - - -
19/11:30am 20.6 E 7 9 1015.2 - 0.0 - - - - - - -
19/11:00am 19.5 SE 5 6 1015.5 - 0.0 - - - - - - -
19/10:30am 18.9 S 4 6 1015.7 - 0.0 - - - - - - -
19/10:00am 18.3 SW 5 6 1015.8 - 0.0 - - - - - - -
19/09:30am 17.9 SW 6 7 1015.9 - 0.0 - - - - - - -
19/09:00am 18.1 SW 7 9 1016.0 - 0.0 Fine Mostly cloudy 25 1 1.5 9 S
19/08:30am 17.5 W 8 9 1016.1 - 0.0 - - - - - - -
19/08:00am 16.7 WNW 9 10 1016.2 - 0.0 - - - - - - -
19/07:30am 16.0 WNW 9 11 1016.1 - 0.0 - - - - - - -
19/07:00am 14.9 WNW 9 11 1015.8 - 0.0 - - - - - - -
19/06:30am 14.2 WNW 9 12 1015.7 - 0.0 - - - - - - -
19/06:00am 14.1 WNW 10 12 1015.5 - 0.0 - - - - - - -
19/05:30am 14.0 WNW 10 13 1015.4 - 0.0 - - - - - - -
19/05:00am 14.0 WNW 11 14 1015.2 - 0.0 - - - - - - -
19/04:30am 13.9 WNW 10 14 1015.0 - 0.0 - - - - - - -
19/04:00am 14.2 WNW 11 15 1015.0 - 0.0 - - - - - - -
19/03:30am 14.4 WNW 11 15 1015.4 - 0.0 - - - - - - -
19/03:00am 14.4 NW 11 14 1015.6 - 0.0 Fine Mostly clear 30 1 1.5 8 S
19/02:30am 14.3 NW 11 17 1016.0 - 0.0 - - - - - - -
19/02:00am 14.3 NW 11 15 1016.2 - 0.0 - - - - - - -
19/01:30am 14.8 NW 9 15 1016.4 - 0.0 - - - - - - -
19/01:00am 16.0 W 12 15 1016.4 - 0.0 - - - - - - -
19/12:30am 16.6 W 13 16 1016.3 - 0.0 - - - - - - -
19/12:00am 17.4 SW 15 19 1016.4 - 0.0 - - - - - - -
 
Date/Time
EDT
Temp
°C
Wind Pressure Rain since
9am
mm
Weather Cloud Vis
km
Sea
Height
m
Swell
Dir  Spd
kts
Gust
kts
hPa Trend Height
m
Period
s
Dir
18/11:30pm 17.5 SSW 18 21 1016.5 - 0.0 - - - - - - -
18/11:00pm 17.7 SSW 19 24 1016.5 - 0.0 - - - - - - -
18/10:30pm 17.6 SSW 22 27 1016.3 - 0.0 - - - - - - -
18/10:00pm 17.7 SW 22 28 1016.1 - 0.0 - - - - - - -
18/09:30pm 17.6 SSW 23 28 1015.7 - 0.0 - - - - - - -
18/09:00pm 17.9 SSW 26 30 1014.9 - 0.0 Fine Mostly cloudy 30 3 3.0 7 SW
18/08:30pm 17.6 SSW 27 33 1014.6 - 0.0 - - - - - - -
18/08:00pm 17.5 SSW 29 34 1014.3 - 0.0 - - - - - - -
18/07:30pm 18.0 SSW 29 34 1013.6 - 0.0 - - - - - - -

Other Formats:

Comma delimited format used in spreadsheet applications
http://www.bom.gov.au/fwo/IDV60701/IDV60701.94933.axf

JavaScript Object Notation format (JSON) in row-major order
http://www.bom.gov.au/fwo/IDV60701/IDV60701.94933.json